sensor_id;sensor_type;location;lat;lon;timestamp;pressure;altitude;pressure_sealevel;temperature;humidity
22283;BME280;11310;51.528;21.204;2023-04-25T00:01:08;98748.91;;;11.80;92.75
22283;BME280;11310;51.528;21.204;2023-04-25T00:03:41;98752.50;;;11.79;93.06
22283;BME280;11310;51.528;21.204;2023-04-25T00:06:11;98749.13;;;11.77;92.90
22283;BME280;11310;51.528;21.204;2023-04-25T00:08:40;98744.94;;;11.74;93.35
22283;BME280;11310;51.528;21.204;2023-04-25T00:11:08;98749.38;;;11.74;93.18
22283;BME280;11310;51.528;21.204;2023-04-25T00:13:37;98746.94;;;11.71;93.98
22283;BME280;11310;51.528;21.204;2023-04-25T00:16:08;98749.78;;;11.68;93.94
22283;BME280;11310;51.528;21.204;2023-04-25T00:18:37;98754.53;;;11.63;95.00
22283;BME280;11310;51.528;21.204;2023-04-25T00:21:08;98746.09;;;11.58;94.78
22283;BME280;11310;51.528;21.204;2023-04-25T00:23:36;98742.84;;;11.54;94.89
22283;BME280;11310;51.528;21.204;2023-04-25T00:26:06;98745.69;;;11.51;95.64
22283;BME280;11310;51.528;21.204;2023-04-25T00:28:34;98741.72;;;11.46;95.85
22283;BME280;11310;51.528;21.204;2023-04-25T00:31:03;98733.94;;;11.44;95.63
22283;BME280;11310;51.528;21.204;2023-04-25T00:33:32;98732.91;;;11.47;95.88
22283;BME280;11310;51.528;21.204;2023-04-25T00:36:01;98737.19;;;11.48;95.71
22283;BME280;11310;51.528;21.204;2023-04-25T00:38:32;98731.84;;;11.49;96.13
22283;BME280;11310;51.528;21.204;2023-04-25T00:41:01;98725.72;;;11.49;95.86
22283;BME280;11310;51.528;21.204;2023-04-25T00:43:32;98724.41;;;11.43;96.81
22283;BME280;11310;51.528;21.204;2023-04-25T00:46:03;98722.28;;;11.36;96.65
22283;BME280;11310;51.528;21.204;2023-04-25T00:48:32;98725.16;;;11.33;96.75
22283;BME280;11310;51.528;21.204;2023-04-25T00:51:01;98721.25;;;11.26;97.20
22283;BME280;11310;51.528;21.204;2023-04-25T00:53:32;98729.03;;;11.27;97.02
22283;BME280;11310;51.528;21.204;2023-04-25T00:56:03;98731.03;;;11.24;97.87
22283;BME280;11310;51.528;21.204;2023-04-25T00:58:33;98716.88;;;11.14;98.57
22283;BME280;11310;51.528;21.204;2023-04-25T01:01:02;98729.03;;;11.15;98.66
22283;BME280;11310;51.528;21.204;2023-04-25T01:03:32;98734.06;;;11.18;98.60
22283;BME280;11310;51.528;21.204;2023-04-25T01:06:02;98732.38;;;11.17;100.00
22283;BME280;11310;51.528;21.204;2023-04-25T01:08:33;98729.84;;;11.15;98.64
22283;BME280;11310;51.528;21.204;2023-04-25T01:11:05;98733.22;;;11.17;98.63
22283;BME280;11310;51.528;21.204;2023-04-25T01:13:34;98722.84;;;11.16;98.65
22283;BME280;11310;51.528;21.204;2023-04-25T01:16:05;98715.59;;;11.19;98.99
22283;BME280;11310;51.528;21.204;2023-04-25T01:18:33;98726.94;;;11.20;98.93
22283;BME280;11310;51.528;21.204;2023-04-25T01:21:07;98723.56;;;11.18;98.23
22283;BME280;11310;51.528;21.204;2023-04-25T01:23:38;98710.16;;;11.10;98.52
22283;BME280;11310;51.528;21.204;2023-04-25T01:26:09;98725.66;;;11.13;98.65
22283;BME280;11310;51.528;21.204;2023-04-25T01:28:39;98727.38;;;11.14;98.77
22283;BME280;11310;51.528;21.204;2023-04-25T01:31:10;98723.78;;;11.15;100.00
22283;BME280;11310;51.528;21.204;2023-04-25T01:33:40;98715.59;;;11.19;97.52
22283;BME280;11310;51.528;21.204;2023-04-25T01:36:10;98724.63;;;11.28;96.84
22283;BME280;11310;51.528;21.204;2023-04-25T01:38:39;98716.41;;;11.32;97.06
22283;BME280;11310;51.528;21.204;2023-04-25T01:41:08;98715.78;;;11.29;97.64
22283;BME280;11310;51.528;21.204;2023-04-25T01:43:38;98708.03;;;11.15;98.33
22283;BME280;11310;51.528;21.204;2023-04-25T01:46:07;98712.44;;;11.02;99.47
22283;BME280;11310;51.528;21.204;2023-04-25T01:48:35;98710.88;;;10.87;99.93
22283;BME280;11310;51.528;21.204;2023-04-25T01:51:04;98706.66;;;10.72;100.00
22283;BME280;11310;51.528;21.204;2023-04-25T01:53:34;98705.41;;;10.65;100.00
22283;BME280;11310;51.528;21.204;2023-04-25T01:56:05;98710.97;;;10.73;100.00
22283;BME280;11310;51.528;21.204;2023-04-25T01:58:35;98712.22;;;10.80;100.00
22283;BME280;11310;51.528;21.204;2023-04-25T02:01:24;98710.13;;;10.85;100.00
22283;BME280;11310;51.528;21.204;2023-04-25T02:04:10;98715.91;;;10.90;100.00
22283;BME280;11310;51.528;21.204;2023-04-25T02:06:40;98714.75;;;10.94;100.00
22283;BME280;11310;51.528;21.204;2023-04-25T02:09:10;98709.72;;;10.91;100.00
22283;BME280;11310;51.528;21.204;2023-04-25T02:11:44;98710.22;;;10.83;100.00
22283;BME280;11310;51.528;21.204;2023-04-25T02:14:25;98717.91;;;10.74;100.00
22283;BME280;11310;51.528;21.204;2023-04-25T02:17:16;98718.00;;;10.60;100.00
22283;BME280;11310;51.528;21.204;2023-04-25T02:19:45;98713.03;;;10.55;100.00
22283;BME280;11310;51.528;21.204;2023-04-25T02:22:17;98717.84;;;10.49;100.00
22283;BME280;11310;51.528;21.204;2023-04-25T02:24:47;98712.81;;;10.46;100.00
22283;BME280;11310;51.528;21.204;2023-04-25T02:27:17;98718.69;;;10.37;100.00
22283;BME280;11310;51.528;21.204;2023-04-25T02:29:46;98710.47;;;10.29;100.00
22283;BME280;11310;51.528;21.204;2023-04-25T02:32:15;98710.28;;;10.32;100.00
22283;BME280;11310;51.528;21.204;2023-04-25T02:34:43;98707.34;;;10.36;100.00
22283;BME280;11310;51.528;21.204;2023-04-25T02:37:12;98711.34;;;10.42;100.00
22283;BME280;11310;51.528;21.204;2023-04-25T02:39:40;98710.19;;;10.46;100.00
22283;BME280;11310;51.528;21.204;2023-04-25T02:42:10;98704.53;;;10.52;100.00
22283;BME280;11310;51.528;21.204;2023-04-25T02:44:39;98709.69;;;10.53;100.00
22283;BME280;11310;51.528;21.204;2023-04-25T02:47:07;98707.88;;;10.54;100.00
22283;BME280;11310;51.528;21.204;2023-04-25T02:49:36;98703.59;;;10.53;100.00
22283;BME280;11310;51.528;21.204;2023-04-25T02:52:05;98711.34;;;10.54;100.00
22283;BME280;11310;51.528;21.204;2023-04-25T02:54:33;98712.22;;;10.55;100.00
22283;BME280;11310;51.528;21.204;2023-04-25T02:57:05;98708.22;;;10.49;100.00
22283;BME280;11310;51.528;21.204;2023-04-25T02:59:38;98713.34;;;10.51;100.00
22283;BME280;11310;51.528;21.204;2023-04-25T03:02:06;98708.41;;;10.46;100.00
22283;BME280;11310;51.528;21.204;2023-04-25T03:04:35;98711.13;;;10.45;100.00
22283;BME280;11310;51.528;21.204;2023-04-25T03:07:04;98708.50;;;10.45;100.00
22283;BME280;11310;51.528;21.204;2023-04-25T03:09:33;98709.25;;;10.47;100.00
22283;BME280;11310;51.528;21.204;2023-04-25T03:12:02;98707.59;;;10.46;100.00
22283;BME280;11310;51.528;21.204;2023-04-25T03:14:32;98705.69;;;10.48;100.00
22283;BME280;11310;51.528;21.204;2023-04-25T03:17:02;98702.88;;;10.51;100.00
22283;BME280;11310;51.528;21.204;2023-04-25T03:19:31;98702.53;;;10.55;100.00
22283;BME280;11310;51.528;21.204;2023-04-25T03:21:59;98700.59;;;10.59;100.00
22283;BME280;11310;51.528;21.204;2023-04-25T03:24:29;98697.97;;;10.59;100.00
22283;BME280;11310;51.528;21.204;2023-04-25T03:26:57;98709.69;;;10.66;100.00
22283;BME280;11310;51.528;21.204;2023-04-25T03:29:27;98699.00;;;10.69;100.00
22283;BME280;11310;51.528;21.204;2023-04-25T03:31:58;98703.84;;;10.75;100.00
22283;BME280;11310;51.528;21.204;2023-04-25T03:34:28;98705.84;;;10.84;100.00
22283;BME280;11310;51.528;21.204;2023-04-25T03:36:57;98699.25;;;10.91;100.00
22283;BME280;11310;51.528;21.204;2023-04-25T03:39:26;98704.06;;;10.97;100.00
22283;BME280;11310;51.528;21.204;2023-04-25T03:41:56;98701.53;;;11.08;100.00
22283;BME280;11310;51.528;21.204;2023-04-25T03:44:24;98705.53;;;11.13;100.00
22283;BME280;11310;51.528;21.204;2023-04-25T03:46:53;98704.38;;;11.17;100.00
22283;BME280;11310;51.528;21.204;2023-04-25T03:49:24;98699.72;;;11.21;100.00
22283;BME280;11310;51.528;21.204;2023-04-25T03:52:03;98708.88;;;11.28;100.00
22283;BME280;11310;51.528;21.204;2023-04-25T03:54:38;98709.38;;;11.33;100.00
22283;BME280;11310;51.528;21.204;2023-04-25T03:57:14;98710.72;;;11.38;100.00
22283;BME280;11310;51.528;21.204;2023-04-25T03:59:43;98704.00;;;11.47;100.00
22283;BME280;11310;51.528;21.204;2023-04-25T04:02:14;98711.94;;;11.58;100.00
22283;BME280;11310;51.528;21.204;2023-04-25T04:04:44;98711.34;;;11.67;100.00
22283;BME280;11310;51.528;21.204;2023-04-25T04:07:15;98716.13;;;11.73;100.00
22283;BME280;11310;51.528;21.204;2023-04-25T04:09:48;98712.34;;;11.77;100.00
22283;BME280;11310;51.528;21.204;2023-04-25T04:12:26;98711.06;;;11.82;100.00
22283;BME280;11310;51.528;21.204;2023-04-25T04:14:55;98715.06;;;11.88;100.00
22283;BME280;11310;51.528;21.204;2023-04-25T04:17:24;98716.53;;;11.92;100.00
22283;BME280;11310;51.528;21.204;2023-04-25T04:19:53;98724.06;;;11.97;100.00
22283;BME280;11310;51.528;21.204;2023-04-25T04:22:24;98724.66;;;12.00;100.00
22283;BME280;11310;51.528;21.204;2023-04-25T04:24:57;98721.84;;;12.03;100.00
22283;BME280;11310;51.528;21.204;2023-04-25T04:28:04;98724.47;;;12.03;100.00
22283;BME280;11310;51.528;21.204;2023-04-25T04:30:42;98733.69;;;12.09;100.00
22283;BME280;11310;51.528;21.204;2023-04-25T04:33:15;98725.81;;;12.09;100.00
22283;BME280;11310;51.528;21.204;2023-04-25T04:35:51;98732.84;;;12.08;100.00
22283;BME280;11310;51.528;21.204;2023-04-25T04:38:24;98736.53;;;12.06;100.00
22283;BME280;11310;51.528;21.204;2023-04-25T04:40:58;98740.00;;;12.06;100.00
22283;BME280;11310;51.528;21.204;2023-04-25T04:43:48;98737.38;;;12.06;100.00
22283;BME280;11310;51.528;21.204;2023-04-25T04:46:36;98736.63;;;12.04;100.00
22283;BME280;11310;51.528;21.204;2023-04-25T04:49:28;98737.59;;;12.03;100.00
22283;BME280;11310;51.528;21.204;2023-04-25T04:52:29;98735.19;;;12.00;100.00
22283;BME280;11310;51.528;21.204;2023-04-25T04:55:23;98744.25;;;11.96;100.00
22283;BME280;11310;51.528;21.204;2023-04-25T04:58:03;98741.84;;;11.93;100.00
22283;BME280;11310;51.528;21.204;2023-04-25T05:00:45;98741.09;;;11.91;100.00
22283;BME280;11310;51.528;21.204;2023-04-25T05:03:52;98744.47;;;11.93;100.00
22283;BME280;11310;51.528;21.204;2023-04-25T05:06:54;98745.19;;;11.95;100.00
22283;BME280;11310;51.528;21.204;2023-04-25T05:09:48;98734.16;;;11.90;100.00
22283;BME280;11310;51.528;21.204;2023-04-25T05:12:37;98745.28;;;11.93;100.00
22283;BME280;11310;51.528;21.204;2023-04-25T05:15:35;98742.81;;;11.92;100.00
22283;BME280;11310;51.528;21.204;2023-04-25T05:18:33;98738.47;;;11.91;100.00
22283;BME280;11310;51.528;21.204;2023-04-25T05:21:23;98734.16;;;11.90;100.00
22283;BME280;11310;51.528;21.204;2023-04-25T05:24:11;98746.59;;;11.88;100.00
22283;BME280;11310;51.528;21.204;2023-04-25T05:27:19;98737.25;;;11.84;100.00
22283;BME280;11310;51.528;21.204;2023-04-25T05:30:13;98742.41;;;11.86;100.00
22283;BME280;11310;51.528;21.204;2023-04-25T05:33:00;98741.75;;;11.82;100.00
22283;BME280;11310;51.528;21.204;2023-04-25T05:35:29;98723.59;;;11.79;100.00
22283;BME280;11310;51.528;21.204;2023-04-25T05:37:58;98742.59;;;11.82;100.00
22283;BME280;11310;51.528;21.204;2023-04-25T05:40:50;98734.63;;;11.84;100.00
22283;BME280;11310;51.528;21.204;2023-04-25T05:43:58;98746.81;;;11.85;100.00
22283;BME280;11310;51.528;21.204;2023-04-25T05:46:43;98744.06;;;11.87;100.00
22283;BME280;11310;51.528;21.204;2023-04-25T05:49:31;98746.69;;;11.87;100.00
22283;BME280;11310;51.528;21.204;2023-04-25T05:52:31;98750.28;;;11.86;100.00
22283;BME280;11310;51.528;21.204;2023-04-25T05:55:08;98750.38;;;11.84;100.00
22283;BME280;11310;51.528;21.204;2023-04-25T05:57:39;98746.41;;;11.78;100.00
22283;BME280;11310;51.528;21.204;2023-04-25T06:00:11;98741.69;;;11.71;100.00
22283;BME280;11310;51.528;21.204;2023-04-25T06:02:42;98748.09;;;11.67;100.00
22283;BME280;11310;51.528;21.204;2023-04-25T06:05:13;98741.69;;;11.71;100.00
22283;BME280;11310;51.528;21.204;2023-04-25T06:07:43;98743.16;;;11.75;100.00
22283;BME280;11310;51.528;21.204;2023-04-25T06:10:13;98746.00;;;11.72;100.00
22283;BME280;11310;51.528;21.204;2023-04-25T06:12:42;98752.72;;;11.76;100.00
22283;BME280;11310;51.528;21.204;2023-04-25T06:15:12;98751.75;;;11.77;100.00
22283;BME280;11310;51.528;21.204;2023-04-25T06:17:56;98749.03;;;11.78;100.00
22283;BME280;11310;51.528;21.204;2023-04-25T06:20:25;98755.94;;;11.79;100.00
22283;BME280;11310;51.528;21.204;2023-04-25T06:22:57;98749.03;;;11.78;100.00
22283;BME280;11310;51.528;21.204;2023-04-25T06:25:39;98752.25;;;11.82;100.00
22283;BME280;11310;51.528;21.204;2023-04-25T06:28:08;98754.28;;;11.78;100.00
22283;BME280;11310;51.528;21.204;2023-04-25T06:30:40;98759.63;;;11.77;100.00
22283;BME280;11310;51.528;21.204;2023-04-25T06:33:14;98767.25;;;11.69;100.00
22283;BME280;11310;51.528;21.204;2023-04-25T06:35:43;98764.41;;;11.59;100.00
22283;BME280;11310;51.528;21.204;2023-04-25T06:38:16;98767.88;;;11.60;100.00
22283;BME280;11310;51.528;21.204;2023-04-25T06:40:48;98770.69;;;11.57;100.00
22283;BME280;11310;51.528;21.204;2023-04-25T06:43:17;98758.81;;;11.51;100.00
22283;BME280;11310;51.528;21.204;2023-04-25T06:46:01;98760.09;;;11.46;100.00
22283;BME280;11310;51.528;21.204;2023-04-25T06:48:34;98757.47;;;11.46;100.00
22283;BME280;11310;51.528;21.204;2023-04-25T06:51:04;98764.16;;;11.50;100.00
22283;BME280;11310;51.528;21.204;2023-04-25T06:53:35;98763.16;;;11.52;100.00
22283;BME280;11310;51.528;21.204;2023-04-25T06:56:06;98772.59;;;11.55;100.00
22283;BME280;11310;51.528;21.204;2023-04-25T06:58:49;98773.09;;;11.47;100.00
22283;BME280;11310;51.528;21.204;2023-04-25T07:01:37;98773.63;;;11.40;100.00
22283;BME280;11310;51.528;21.204;2023-04-25T07:04:12;98775.66;;;11.36;100.00
22283;BME280;11310;51.528;21.204;2023-04-25T07:06:54;98778.38;;;11.35;100.00
22283;BME280;11310;51.528;21.204;2023-04-25T07:09:31;98779.75;;;11.28;100.00
22283;BME280;11310;51.528;21.204;2023-04-25T07:12:02;98794.13;;;11.22;100.00
22283;BME280;11310;51.528;21.204;2023-04-25T07:14:31;98795.38;;;11.17;100.00
22283;BME280;11310;51.528;21.204;2023-04-25T07:17:00;98800.84;;;11.14;100.00
22283;BME280;11310;51.528;21.204;2023-04-25T07:19:33;98808.41;;;11.06;100.00
22283;BME280;11310;51.528;21.204;2023-04-25T07:22:02;98813.84;;;11.03;100.00
22283;BME280;11310;51.528;21.204;2023-04-25T07:24:32;98819.31;;;11.00;100.00
22283;BME280;11310;51.528;21.204;2023-04-25T07:27:03;98820.47;;;10.96;100.00
22283;BME280;11310;51.528;21.204;2023-04-25T07:29:54;98823.28;;;10.93;100.00
22283;BME280;11310;51.528;21.204;2023-04-25T07:32:24;98822.66;;;10.89;100.00
22283;BME280;11310;51.528;21.204;2023-04-25T07:34:55;98832.38;;;10.87;100.00
22283;BME280;11310;51.528;21.204;2023-04-25T07:37:24;98831.84;;;10.82;100.00
22283;BME280;11310;51.528;21.204;2023-04-25T07:40:08;98833.09;;;10.77;100.00
22283;BME280;11310;51.528;21.204;2023-04-25T07:42:43;98840.41;;;10.72;100.00
22283;BME280;11310;51.528;21.204;2023-04-25T07:45:19;98837.25;;;10.67;100.00
22283;BME280;11310;51.528;21.204;2023-04-25T07:47:48;98832.22;;;10.64;100.00
22283;BME280;11310;51.528;21.204;2023-04-25T07:50:19;98837.66;;;10.61;100.00
22283;BME280;11310;51.528;21.204;2023-04-25T07:52:47;98836.00;;;10.60;100.00
22283;BME280;11310;51.528;21.204;2023-04-25T07:55:31;98844.13;;;10.55;100.00
22283;BME280;11310;51.528;21.204;2023-04-25T07:58:06;98839.31;;;10.49;100.00
22283;BME280;11310;51.528;21.204;2023-04-25T08:00:37;98845.88;;;10.42;100.00
22283;BME280;11310;51.528;21.204;2023-04-25T08:03:39;98850.56;;;10.37;100.00
22283;BME280;11310;51.528;21.204;2023-04-25T08:06:16;98845.53;;;10.34;100.00
22283;BME280;11310;51.528;21.204;2023-04-25T08:09:18;98858.72;;;10.33;100.00
22283;BME280;11310;51.528;21.204;2023-04-25T08:11:48;98861.34;;;10.33;100.00
22283;BME280;11310;51.528;21.204;2023-04-25T08:14:23;98849.94;;;10.34;100.00
22283;BME280;11310;51.528;21.204;2023-04-25T08:16:51;98849.84;;;10.35;100.00
22283;BME280;11310;51.528;21.204;2023-04-25T08:19:20;98849.19;;;10.32;100.00
22283;BME280;11310;51.528;21.204;2023-04-25T08:21:52;98848.06;;;10.36;100.00
22283;BME280;11310;51.528;21.204;2023-04-25T08:24:29;98845.13;;;10.40;100.00
22283;BME280;11310;51.528;21.204;2023-04-25T08:27:32;98837.72;;;10.47;100.00
22283;BME280;11310;51.528;21.204;2023-04-25T08:30:01;98835.94;;;10.47;100.00
22283;BME280;11310;51.528;21.204;2023-04-25T08:32:30;98840.34;;;10.47;100.00
22283;BME280;11310;51.528;21.204;2023-04-25T08:35:17;98825.75;;;10.43;100.00
22283;BME280;11310;51.528;21.204;2023-04-25T08:37:48;98842.31;;;10.43;100.00
22283;BME280;11310;51.528;21.204;2023-04-25T08:40:17;98848.97;;;10.35;100.00
22283;BME280;11310;51.528;21.204;2023-04-25T08:43:01;98855.03;;;10.23;100.00
22283;BME280;11310;51.528;21.204;2023-04-25T08:45:32;98852.97;;;10.14;100.00
22283;BME280;11310;51.528;21.204;2023-04-25T08:48:03;98851.66;;;10.07;100.00
22283;BME280;11310;51.528;21.204;2023-04-25T08:50:36;98855.97;;;10.08;100.00
22283;BME280;11310;51.528;21.204;2023-04-25T08:53:09;98859.34;;;10.10;100.00
22283;BME280;11310;51.528;21.204;2023-04-25T08:55:45;98869.06;;;10.08;100.00
22283;BME280;11310;51.528;21.204;2023-04-25T08:58:23;98859.63;;;10.05;100.00
22283;BME280;11310;51.528;21.204;2023-04-25T09:00:52;98873.25;;;10.10;100.00
22283;BME280;11310;51.528;21.204;2023-04-25T09:03:26;98870.78;;;10.09;100.00
22283;BME280;11310;51.528;21.204;2023-04-25T09:05:55;98879.53;;;10.08;100.00
22283;BME280;11310;51.528;21.204;2023-04-25T09:08:38;98876.00;;;10.09;100.00
22283;BME280;11310;51.528;21.204;2023-04-25T09:11:09;98884.13;;;10.04;100.00
22283;BME280;11310;51.528;21.204;2023-04-25T09:13:39;98882.44;;;10.03;100.00
22283;BME280;11310;51.528;21.204;2023-04-25T09:16:26;98886.66;;;10.06;100.00
22283;BME280;11310;51.528;21.204;2023-04-25T09:19:21;98890.03;;;10.08;100.00
22283;BME280;11310;51.528;21.204;2023-04-25T09:22:12;98888.16;;;10.10;100.00
22283;BME280;11310;51.528;21.204;2023-04-25T09:24:44;98889.00;;;10.10;100.00
22283;BME280;11310;51.528;21.204;2023-04-25T09:27:19;98890.78;;;10.10;100.00
22283;BME280;11310;51.528;21.204;2023-04-25T09:29:57;98893.97;;;10.15;100.00
22283;BME280;11310;51.528;21.204;2023-04-25T09:32:29;98891.16;;;10.18;100.00
22283;BME280;11310;51.528;21.204;2023-04-25T09:34:58;98894.25;;;10.24;100.00
22283;BME280;11310;51.528;21.204;2023-04-25T09:37:30;98895.81;;;10.27;100.00
22283;BME280;11310;51.528;21.204;2023-04-25T09:40:07;98897.50;;;10.28;100.00
22283;BME280;11310;51.528;21.204;2023-04-25T09:42:57;98894.03;;;10.27;100.00
22283;BME280;11310;51.528;21.204;2023-04-25T09:45:29;98895.81;;;10.27;100.00
22283;BME280;11310;51.528;21.204;2023-04-25T09:48:03;98899.47;;;10.24;100.00
22283;BME280;11310;51.528;21.204;2023-04-25T09:50:36;98896.75;;;10.26;100.00
22283;BME280;11310;51.528;21.204;2023-04-25T09:53:10;98895.06;;;10.25;100.00
22283;BME280;11310;51.528;21.204;2023-04-25T09:55:56;98901.06;;;10.27;100.00
22283;BME280;11310;51.528;21.204;2023-04-25T09:58:29;98899.00;;;10.32;100.00
22283;BME280;11310;51.528;21.204;2023-04-25T10:01:03;98895.13;;;10.37;100.00
22283;BME280;11310;51.528;21.204;2023-04-25T10:03:42;98898.19;;;10.44;100.00
22283;BME280;11310;51.528;21.204;2023-04-25T10:06:36;98896.97;;;10.49;100.00
22283;BME280;11310;51.528;21.204;2023-04-25T10:09:06;98903.41;;;10.58;100.00
22283;BME280;11310;51.528;21.204;2023-04-25T10:11:38;98910.16;;;10.62;100.00
22283;BME280;11310;51.528;21.204;2023-04-25T10:14:07;98903.53;;;10.56;100.00
22283;BME280;11310;51.528;21.204;2023-04-25T10:16:37;98906.25;;;10.55;100.00
22283;BME280;11310;51.528;21.204;2023-04-25T10:19:07;98907.16;;;10.54;100.00
22283;BME280;11310;51.528;21.204;2023-04-25T10:21:39;98904.84;;;10.49;100.00
22283;BME280;11310;51.528;21.204;2023-04-25T10:24:11;98911.13;;;10.47;100.00
22283;BME280;11310;51.528;21.204;2023-04-25T10:26:42;98913.75;;;10.47;100.00
22283;BME280;11310;51.528;21.204;2023-04-25T10:29:11;98908.50;;;10.47;100.00
22283;BME280;11310;51.528;21.204;2023-04-25T10:31:45;98905.03;;;10.46;100.00
22283;BME280;11310;51.528;21.204;2023-04-25T10:34:15;98905.78;;;10.48;100.00
22283;BME280;11310;51.528;21.204;2023-04-25T10:36:49;98901.72;;;10.57;100.00
22283;BME280;11310;51.528;21.204;2023-04-25T10:39:26;98900.09;;;10.68;100.00
22283;BME280;11310;51.528;21.204;2023-04-25T10:41:58;98903.63;;;10.81;100.00
22283;BME280;11310;51.528;21.204;2023-04-25T10:44:27;98904.94;;;10.88;100.00
22283;BME280;11310;51.528;21.204;2023-04-25T10:46:59;98903.66;;;10.94;100.00
22283;BME280;11310;51.528;21.204;2023-04-25T10:49:29;98908.31;;;11.03;100.00
22283;BME280;11310;51.528;21.204;2023-04-25T10:52:12;98911.69;;;11.05;100.00
22283;BME280;11310;51.528;21.204;2023-04-25T10:54:42;98906.44;;;11.05;100.00
22283;BME280;11310;51.528;21.204;2023-04-25T10:57:28;98909.78;;;11.07;100.00
22283;BME280;11310;51.528;21.204;2023-04-25T11:00:06;98909.59;;;11.10;100.00
22283;BME280;11310;51.528;21.204;2023-04-25T11:02:37;98908.66;;;11.11;100.00
22283;BME280;11310;51.528;21.204;2023-04-25T11:05:07;98910.13;;;11.15;100.00
22283;BME280;11310;51.528;21.204;2023-04-25T11:07:49;98906.22;;;11.08;100.00
22283;BME280;11310;51.528;21.204;2023-04-25T11:10:38;98912.50;;;11.05;100.00
22283;BME280;11310;51.528;21.204;2023-04-25T11:13:09;98915.44;;;11.01;100.00
22283;BME280;11310;51.528;21.204;2023-04-25T11:15:38;98906.91;;;10.97;100.00
22283;BME280;11310;51.528;21.204;2023-04-25T11:18:07;98907.78;;;10.98;100.00
22283;BME280;11310;51.528;21.204;2023-04-25T11:20:36;98908.53;;;11.00;100.00
22283;BME280;11310;51.528;21.204;2023-04-25T11:23:05;98896.31;;;10.99;100.00
22283;BME280;11310;51.528;21.204;2023-04-25T11:25:34;98900.84;;;10.97;100.00
22283;BME280;11310;51.528;21.204;2023-04-25T11:28:05;98904.50;;;10.94;100.00
22283;BME280;11310;51.528;21.204;2023-04-25T11:30:35;98909.84;;;10.93;100.00
22283;BME280;11310;51.528;21.204;2023-04-25T11:33:05;98899.56;;;10.90;100.00
22283;BME280;11310;51.528;21.204;2023-04-25T11:35:34;98899.47;;;10.91;100.00
22283;BME280;11310;51.528;21.204;2023-04-25T11:38:04;98902.84;;;10.93;100.00
22283;BME280;11310;51.528;21.204;2023-04-25T11:40:32;98901.81;;;10.96;100.00
22283;BME280;11310;51.528;21.204;2023-04-25T11:43:02;98901.97;;;10.93;100.00
22283;BME280;11310;51.528;21.204;2023-04-25T11:45:31;98891.91;;;10.87;100.00
22283;BME280;11310;51.528;21.204;2023-04-25T11:48:03;98901.25;;;10.91;100.00
22283;BME280;11310;51.528;21.204;2023-04-25T11:50:32;98904.16;;;10.86;100.00
22283;BME280;11310;51.528;21.204;2023-04-25T11:53:01;98900.91;;;10.83;100.00
22283;BME280;11310;51.528;21.204;2023-04-25T11:55:30;98895.03;;;10.79;100.00
22283;BME280;11310;51.528;21.204;2023-04-25T11:58:00;98898.66;;;10.77;100.00
22283;BME280;11310;51.528;21.204;2023-04-25T12:00:30;98899.31;;;10.80;100.00
22283;BME280;11310;51.528;21.204;2023-04-25T12:02:59;98902.41;;;10.87;100.00
22283;BME280;11310;51.528;21.204;2023-04-25T12:05:31;98894.84;;;10.95;100.00
22283;BME280;11310;51.528;21.204;2023-04-25T12:08:20;98900.03;;;11.09;100.00
22283;BME280;11310;51.528;21.204;2023-04-25T12:10:49;98896.06;;;11.16;100.00
22283;BME280;11310;51.528;21.204;2023-04-25T12:13:19;98891.16;;;11.24;100.00
22283;BME280;11310;51.528;21.204;2023-04-25T12:15:49;98894.81;;;11.21;100.00
22283;BME280;11310;51.528;21.204;2023-04-25T12:18:19;98893.69;;;11.25;100.00
22283;BME280;11310;51.528;21.204;2023-04-25T12:20:54;98894.84;;;11.34;100.00
22283;BME280;11310;51.528;21.204;2023-04-25T12:23:27;98892.03;;;11.37;100.00
22283;BME280;11310;51.528;21.204;2023-04-25T12:25:57;98892.22;;;11.34;100.00
22283;BME280;11310;51.528;21.204;2023-04-25T12:28:26;98888.00;;;11.31;100.00
22283;BME280;11310;51.528;21.204;2023-04-25T12:30:57;98898.00;;;11.26;100.00
22283;BME280;11310;51.528;21.204;2023-04-25T12:33:27;98889.34;;;11.12;100.00
22283;BME280;11310;51.528;21.204;2023-04-25T12:35:59;98894.91;;;11.07;100.00
22283;BME280;11310;51.528;21.204;2023-04-25T12:38:35;98890.97;;;11.00;100.00
22283;BME280;11310;51.528;21.204;2023-04-25T12:41:05;98891.94;;;10.99;100.00
22283;BME280;11310;51.528;21.204;2023-04-25T12:43:34;98894.47;;;11.01;100.00
22283;BME280;11310;51.528;21.204;2023-04-25T12:46:06;98897.00;;;11.02;100.00
22283;BME280;11310;51.528;21.204;2023-04-25T12:48:53;98891.97;;;11.12;100.00
22283;BME280;11310;51.528;21.204;2023-04-25T12:51:39;98895.13;;;11.17;100.00
22283;BME280;11310;51.528;21.204;2023-04-25T12:54:11;98882.41;;;11.11;100.00
22283;BME280;11310;51.528;21.204;2023-04-25T12:56:41;98891.97;;;11.12;100.00
22283;BME280;11310;51.528;21.204;2023-04-25T12:59:13;98890.28;;;11.11;100.00
22283;BME280;11310;51.528;21.204;2023-04-25T13:01:43;98883.97;;;11.01;100.00
22283;BME280;11310;51.528;21.204;2023-04-25T13:04:13;98884.16;;;10.98;100.00
22283;BME280;11310;51.528;21.204;2023-04-25T13:06:48;98887.72;;;10.97;100.00
22283;BME280;11310;51.528;21.204;2023-04-25T13:09:17;98886.06;;;10.96;100.00
22283;BME280;11310;51.528;21.204;2023-04-25T13:11:45;98885.94;;;10.97;100.00
22283;BME280;11310;51.528;21.204;2023-04-25T13:14:14;98889.59;;;10.95;100.00
22283;BME280;11310;51.528;21.204;2023-04-25T13:16:43;98886.66;;;10.87;100.00